Terminal Aerodrome Forecast
Issued by NWS

Home | Current Version | Previous Version | Text Only | Print | Product List | Glossary On
Versions: 1 2 3 4 5 6 7 8 9 10 11 12 13 14 15 16 17 18 19 20
603
FTUS46 KSTO 231523 AAA
TAFSAC
TAF AMD
KSAC 231523Z 2315/2412 00000KT 1/4SM FG VV001
      TEMPO 2316/2319 1/2SM FG BKN002
     FM231900 VRB03KT 2SM BR BKN005 BKN150
     FM232000 VRB03KT 5SM HZ VCSH SCT020 BKN150
     FM240600 VRB04KT 2SM BR SCT002 BKN250=

USA.gov is the U.S. government's official web portal to all federal, state and local government web resources and services.